createdAt,value
2023-03-27T00:00:34.389Z,98716.88
2023-03-27T00:03:38.031Z,98715.31
2023-03-27T00:06:40.635Z,98692.28
2023-03-27T00:09:44.242Z,98709.28
2023-03-27T00:12:46.594Z,98683.97
2023-03-27T00:15:53.917Z,98665.06
2023-03-27T00:18:56.554Z,98667.81
2023-03-27T00:21:59.114Z,98683.97
2023-03-27T00:25:02.381Z,98651.41
2023-03-27T00:28:05.110Z,98677.53
2023-03-27T00:31:15.663Z,98647.47
2023-03-27T00:34:18.505Z,98661.84
2023-03-27T00:37:22.211Z,98667.75
2023-03-27T00:40:25.610Z,98638.34
2023-03-27T00:43:35.668Z,98628.69
2023-03-27T00:46:44.923Z,98656.66
2023-03-27T00:49:49.836Z,98627.81
2023-03-27T00:52:58.424Z,98650.25
2023-03-27T00:56:04.964Z,98644.37
2023-03-27T00:59:14.180Z,98636.16
2023-03-27T01:02:17.933Z,98610.47
2023-03-27T01:05:21.471Z,98624.72
2023-03-27T01:08:27.281Z,98620.34
2023-03-27T01:11:42.154Z,98605.44
2023-03-27T01:15:12.800Z,98582.25
2023-03-27T01:18:53.702Z,98598.94
2023-03-27T01:22:19.025Z,98582.56
2023-03-27T01:25:45.954Z,98586.34
2023-03-27T01:29:09.269Z,98586.62
2023-03-27T01:32:27.200Z,98583.44
2023-03-27T01:35:55.480Z,98583.75
2023-03-27T01:39:50.418Z,98577.38
2023-03-27T01:43:04.719Z,98573.69
2023-03-27T01:46:15.792Z,98552.72
2023-03-27T01:49:24.850Z,98552.97
2023-03-27T01:52:31.549Z,98538.19
2023-03-27T01:55:39.632Z,98536.13
2023-03-27T01:58:46.770Z,98556.88
2023-03-27T02:01:59.830Z,98553.34
2023-03-27T02:05:12.694Z,98545.47
2023-03-27T02:08:50.712Z,98559.63
2023-03-27T02:11:59.516Z,98556.69
2023-03-27T02:15:25.560Z,98558.69
2023-03-27T02:18:35.939Z,98528.28
2023-03-27T02:21:38.339Z,98554.44
2023-03-27T02:24:43.365Z,98530.53
2023-03-27T02:27:50.062Z,98529.06
2023-03-27T02:31:05.386Z,98540.16
2023-03-27T02:34:26.603Z,98530.03
2023-03-27T02:37:54.606Z,98511.81
2023-03-27T02:41:05.691Z,98500.66
2023-03-27T02:44:47.408Z,98481.25
2023-03-27T02:48:09.644Z,98482.25
2023-03-27T02:51:22.487Z,98468.16
2023-03-27T02:54:33.311Z,98386.81
2023-03-27T02:57:52.301Z,98465.25
2023-03-27T03:01:00.120Z,98468.09
2023-03-27T03:04:13.224Z,98446.41
2023-03-27T03:07:18.665Z,98443.00
2023-03-27T03:10:21.643Z,98429.13
2023-03-27T03:13:26.237Z,98438.25
2023-03-27T03:16:29.862Z,98422.91
2023-03-27T03:19:32.508Z,98453.72
2023-03-27T03:22:36.389Z,98443.91
2023-03-27T03:25:39.379Z,98430.91
2023-03-27T03:28:59.769Z,98450.69
2023-03-27T03:32:05.775Z,98424.19
2023-03-27T03:35:09.907Z,98434.91
2023-03-27T03:38:12.448Z,98447.25
2023-03-27T03:41:16.319Z,98456.34
2023-03-27T03:44:19.018Z,98450.06
2023-03-27T03:47:21.691Z,98450.06
2023-03-27T03:50:24.451Z,98426.34
2023-03-27T03:53:27.256Z,98435.84
2023-03-27T03:56:30.905Z,98440.22
2023-03-27T03:59:33.662Z,98435.84
2023-03-27T04:02:38.765Z,98440.63
2023-03-27T04:05:42.591Z,98436.69
2023-03-27T04:08:45.036Z,98429.19
2023-03-27T04:11:53.805Z,98400.81
2023-03-27T04:14:57.645Z,98405.91
2023-03-27T04:18:04.617Z,98408.28
2023-03-27T04:21:14.877Z,98431.19
2023-03-27T04:24:18.302Z,98428.72
2023-03-27T04:27:21.466Z,98431.97
2023-03-27T04:30:28.103Z,98413.28
2023-03-27T04:33:34.386Z,98384.34
2023-03-27T04:36:39.642Z,98425.31
2023-03-27T04:39:46.294Z,98424.16
2023-03-27T04:42:50.176Z,98434.69
2023-03-27T04:45:53.438Z,98427.59
2023-03-27T04:48:56.553Z,98420.56
2023-03-27T04:52:00.859Z,98423.69
2023-03-27T04:55:05.070Z,98419.75
2023-03-27T04:58:08.242Z,98419.69
2023-03-27T05:01:12.689Z,98408.69
2023-03-27T05:04:17.354Z,98415.78
2023-03-27T05:07:20.593Z,98386.53
2023-03-27T05:10:23.609Z,98403.94
2023-03-27T05:13:26.476Z,98403.09
2023-03-27T05:16:28.880Z,98400.75
2023-03-27T05:19:32.013Z,98382.69
2023-03-27T05:22:34.903Z,98390.53
2023-03-27T05:25:39.485Z,98396.00
2023-03-27T05:28:44.782Z,98388.13
2023-03-27T05:31:48.057Z,98384.09
2023-03-27T05:34:54.666Z,98372.63
2023-03-27T05:37:59.000Z,98373.12
2023-03-27T05:41:02.323Z,98367.19
2023-03-27T05:44:05.516Z,98384.19
2023-03-27T05:47:10.354Z,98381.09
2023-03-27T05:50:14.429Z,98358.59
2023-03-27T05:53:17.818Z,98274.47
2023-03-27T05:56:21.305Z,98374.22
2023-03-27T05:59:24.373Z,98342.56
2023-03-27T06:02:27.868Z,98368.53
2023-03-27T06:05:32.498Z,98344.47
2023-03-27T06:08:36.983Z,98342.91
2023-03-27T06:11:42.795Z,98363.09
2023-03-27T06:14:45.630Z,98340.91
2023-03-27T06:17:49.157Z,98340.00
2023-03-27T06:20:52.806Z,98342.06
2023-03-27T06:23:56.337Z,98339.25
2023-03-27T06:26:59.053Z,98363.34
2023-03-27T06:30:04.697Z,98362.25
2023-03-27T06:33:08.462Z,98355.09
2023-03-27T06:36:12.373Z,98350.34
2023-03-27T06:39:15.292Z,98334.22
2023-03-27T06:42:21.275Z,98325.16
2023-03-27T06:45:26.296Z,98352.44
2023-03-27T06:48:33.911Z,98360.75
2023-03-27T06:51:37.152Z,98333.81
2023-03-27T06:54:39.874Z,98355.44
2023-03-27T06:57:44.197Z,98331.31
2023-03-27T07:00:49.648Z,98351.91
2023-03-27T07:04:03.794Z,98324.13
2023-03-27T07:07:09.326Z,98331.91
2023-03-27T07:10:12.729Z,98348.47
2023-03-27T07:13:16.647Z,98358.03
2023-03-27T07:16:19.096Z,98356.47
2023-03-27T07:19:21.792Z,98362.72
2023-03-27T07:22:25.867Z,98363.19
2023-03-27T07:25:37.824Z,98373.09
2023-03-27T07:28:40.837Z,98318.16
2023-03-27T07:31:57.669Z,98343.16
2023-03-27T07:35:05.242Z,98367.00
2023-03-27T07:38:09.813Z,98348.78
2023-03-27T07:41:14.350Z,98372.53
2023-03-27T07:44:19.713Z,98374.91
2023-03-27T07:47:26.104Z,98349.59
2023-03-27T07:50:47.920Z,98363.69
2023-03-27T07:53:55.198Z,98382.34
2023-03-27T07:56:58.479Z,98302.09
2023-03-27T08:00:04.317Z,98376.34
2023-03-27T08:03:19.864Z,98381.50
2023-03-27T08:06:23.568Z,98380.75
2023-03-27T08:09:25.964Z,98379.25
2023-03-27T08:12:29.660Z,98363.91
2023-03-27T08:15:32.375Z,98361.59
2023-03-27T08:18:36.882Z,98375.00
2023-03-27T08:21:39.734Z,98374.50
2023-03-27T08:24:42.556Z,98387.50
2023-03-27T08:27:45.386Z,98368.03
2023-03-27T08:30:49.791Z,98399.94
2023-03-27T08:33:52.306Z,98394.28
2023-03-27T08:36:56.400Z,98369.87
2023-03-27T08:40:01.966Z,98381.38
2023-03-27T08:43:14.687Z,98397.59
2023-03-27T08:46:22.636Z,98407.44
2023-03-27T08:49:30.918Z,98389.62
2023-03-27T08:52:34.549Z,98395.94
2023-03-27T08:55:41.592Z,98418.09
2023-03-27T08:58:45.658Z,98419.69
2023-03-27T09:02:18.509Z,98398.69
2023-03-27T09:05:33.385Z,98424.00
2023-03-27T09:12:05.923Z,98424.72
2023-03-27T09:15:16.682Z,98430.69
2023-03-27T09:18:32.397Z,98406.13
2023-03-27T09:21:38.461Z,98410.44
2023-03-27T09:24:44.648Z,98431.84
2023-03-27T09:27:52.389Z,98434.59
2023-03-27T09:30:55.913Z,98413.28
2023-03-27T09:34:04.053Z,98442.50
2023-03-27T09:37:13.290Z,98444.50
2023-03-27T09:40:30.485Z,98419.97
2023-03-27T09:43:43.065Z,98447.19
2023-03-27T09:46:49.699Z,98428.94
2023-03-27T09:50:04.130Z,98456.94
2023-03-27T09:53:23.042Z,98434.34
2023-03-27T09:56:32.112Z,98475.31
2023-03-27T10:00:00.300Z,98477.59
2023-03-27T10:03:37.005Z,98474.41
2023-03-27T10:06:47.992Z,98475.16
2023-03-27T10:10:11.709Z,98468.72
2023-03-27T10:13:16.654Z,98455.63
2023-03-27T10:16:24.274Z,98480.56
2023-03-27T10:19:37.183Z,98492.25
2023-03-27T10:22:52.591Z,98486.88
2023-03-27T10:26:04.070Z,98481.97
2023-03-27T10:29:27.104Z,98480.03
2023-03-27T10:32:44.877Z,98489.75
2023-03-27T10:35:48.973Z,98466.34
2023-03-27T10:38:57.310Z,98494.78
2023-03-27T10:42:08.546Z,98506.69
2023-03-27T10:45:20.969Z,98507.91
2023-03-27T10:48:47.770Z,98503.31
2023-03-27T10:52:01.059Z,98501.53
2023-03-27T10:55:22.216Z,98505.25
2023-03-27T10:58:35.245Z,98489.00
2023-03-27T11:01:46.798Z,98515.91
2023-03-27T11:05:23.039Z,98514.31
2023-03-27T11:08:51.435Z,98519.88
2023-03-27T11:12:07.298Z,98517.91
2023-03-27T11:15:38.335Z,98514.97
2023-03-27T11:19:23.867Z,98538.25
2023-03-27T11:22:59.919Z,98532.03
2023-03-27T11:26:07.495Z,98504.25
2023-03-27T11:29:21.474Z,98532.03
2023-03-27T11:32:43.311Z,98516.19
2023-03-27T11:35:54.552Z,98531.63
2023-03-27T11:39:34.618Z,98508.22
2023-03-27T11:42:42.857Z,98541.78
2023-03-27T11:46:18.683Z,98532.59
2023-03-27T11:49:39.812Z,98536.88
2023-03-27T11:52:46.780Z,98526.78
2023-03-27T11:56:00.372Z,98540.19
2023-03-27T11:59:39.172Z,98546.94
2023-03-27T12:03:00.355Z,98545.78
2023-03-27T12:06:26.814Z,98518.16
2023-03-27T12:10:01.319Z,98517.88
2023-03-27T12:13:42.665Z,98546.47
2023-03-27T12:17:14.272Z,98541.78
2023-03-27T12:20:32.738Z,98543.97
2023-03-27T12:24:04.632Z,98545.97
2023-03-27T12:27:34.318Z,98550.78
2023-03-27T12:30:44.746Z,98565.78
2023-03-27T12:34:19.811Z,98565.47
2023-03-27T12:37:31.107Z,98537.25
2023-03-27T12:40:52.495Z,98574.38
2023-03-27T12:44:01.329Z,98577.31
2023-03-27T12:47:14.514Z,98585.56
2023-03-27T12:50:27.432Z,98589.78
2023-03-27T12:53:30.917Z,98587.78
2023-03-27T12:56:36.203Z,98603.41
2023-03-27T12:59:50.819Z,98610.09
2023-03-27T13:02:56.386Z,98611.78
2023-03-27T13:06:12.780Z,98625.94
2023-03-27T13:09:35.467Z,98629.94
2023-03-27T13:12:48.142Z,98644.28
2023-03-27T13:16:02.132Z,98635.31
2023-03-27T13:19:24.126Z,98648.41
2023-03-27T13:23:12.096Z,98648.16
2023-03-27T13:26:21.556Z,98670.94
2023-03-27T13:29:59.907Z,98685.41
2023-03-27T13:33:31.608Z,98673.72
2023-03-27T13:36:36.463Z,98702.19
2023-03-27T13:40:02.299Z,98707.84
2023-03-27T13:43:35.893Z,98658.91
2023-03-27T13:46:48.180Z,98730.84
2023-03-27T13:50:05.624Z,98661.94
2023-03-27T13:53:25.491Z,98748.72
2023-03-27T13:57:17.288Z,98725.25
2023-03-27T14:00:25.208Z,98747.91
2023-03-27T14:03:41.760Z,98766.56
2023-03-27T14:07:09.571Z,98775.44
2023-03-27T14:10:24.859Z,98793.41
2023-03-27T14:14:03.563Z,98807.72
2023-03-27T14:17:21.963Z,98791.78
2023-03-27T14:20:41.844Z,98826.56
2023-03-27T14:23:58.844Z,98853.84
2023-03-27T14:27:03.982Z,98868.47
2023-03-27T14:30:15.662Z,98822.66
2023-03-27T14:33:20.060Z,98863.31
2023-03-27T14:36:28.683Z,98879.00
2023-03-27T14:39:37.653Z,98896.81
2023-03-27T14:42:46.776Z,98917.38
2023-03-27T14:45:52.562Z,98928.81
2023-03-27T14:48:59.995Z,98916.06
2023-03-27T14:52:07.766Z,98908.78
2023-03-27T14:55:19.894Z,98933.87
2023-03-27T14:58:25.081Z,98949.72
2023-03-27T15:01:31.953Z,98941.31
2023-03-27T15:04:35.133Z,98933.91
2023-03-27T15:07:42.870Z,98896.97
2023-03-27T15:10:52.093Z,98964.44
2023-03-27T15:13:57.562Z,98989.50
2023-03-27T15:17:06.933Z,98983.12
2023-03-27T15:20:14.886Z,98992.38
2023-03-27T15:23:24.790Z,99001.72
2023-03-27T15:26:32.115Z,99019.03
2023-03-27T15:29:49.962Z,99039.53
2023-03-27T15:32:56.846Z,99025.94
2023-03-27T15:36:11.502Z,99055.09
2023-03-27T15:39:22.415Z,99063.50
2023-03-27T15:42:45.887Z,99038.72
2023-03-27T15:45:55.322Z,98993.09
2023-03-27T15:49:19.994Z,99089.78
2023-03-27T15:52:32.370Z,99081.25
2023-03-27T15:55:38.088Z,99105.00
2023-03-27T15:58:46.490Z,99119.16
2023-03-27T16:01:54.442Z,99127.91
2023-03-27T16:04:58.976Z,99139.75
2023-03-27T16:08:01.393Z,99131.84
2023-03-27T16:11:06.354Z,99141.19
2023-03-27T16:14:28.657Z,99148.13
2023-03-27T16:17:42.767Z,99197.69
2023-03-27T16:20:45.591Z,99197.69
2023-03-27T16:23:48.248Z,99196.09
2023-03-27T16:26:52.635Z,99209.94
2023-03-27T16:33:22.509Z,99230.69
2023-03-27T16:36:33.629Z,99234.69
2023-03-27T16:39:36.449Z,99248.38
2023-03-27T16:42:39.153Z,99261.03
2023-03-27T16:45:42.000Z,99253.34
2023-03-27T16:48:44.901Z,99263.47
2023-03-27T16:51:47.311Z,99242.31
2023-03-27T16:54:52.739Z,99248.25
2023-03-27T16:57:55.802Z,99308.09
2023-03-27T17:00:58.548Z,99311.62
2023-03-27T17:04:01.305Z,99275.22
2023-03-27T17:07:05.375Z,99323.06
2023-03-27T17:10:08.781Z,99331.09
2023-03-27T17:13:11.581Z,99351.00
2023-03-27T17:16:15.349Z,99340.53
2023-03-27T17:19:18.534Z,99387.12
2023-03-27T17:22:21.508Z,99391.44
2023-03-27T17:25:24.317Z,99400.91
2023-03-27T17:28:26.604Z,99420.03
2023-03-27T17:31:30.972Z,99393.22
2023-03-27T17:34:33.468Z,99432.56
2023-03-27T17:37:36.366Z,99403.66
2023-03-27T17:40:40.908Z,99410.56
2023-03-27T17:43:45.327Z,99462.78
2023-03-27T17:46:47.825Z,99441.25
2023-03-27T17:49:52.927Z,99439.66
2023-03-27T17:52:55.565Z,99409.59
2023-03-27T17:55:59.300Z,99448.91
2023-03-27T17:59:02.447Z,99422.75
2023-03-27T18:02:05.369Z,99429.47
2023-03-27T18:05:08.137Z,99438.31
2023-03-27T18:08:12.739Z,99489.22
2023-03-27T18:11:19.111Z,99459.81
2023-03-27T18:14:21.492Z,99472.31
2023-03-27T18:17:24.384Z,99492.84
2023-03-27T18:20:26.781Z,99465.78
2023-03-27T18:23:29.473Z,99498.87
2023-03-27T18:26:31.903Z,99516.03
2023-03-27T18:29:34.574Z,99481.81
2023-03-27T18:32:36.961Z,99519.53
2023-03-27T18:35:42.657Z,99525.47
2023-03-27T18:38:45.991Z,99498.47
2023-03-27T18:41:51.388Z,99503.72
2023-03-27T18:44:53.935Z,99502.28
2023-03-27T18:47:56.650Z,99499.22
2023-03-27T18:51:01.728Z,99506.00
2023-03-27T18:54:06.030Z,99495.06
2023-03-27T18:57:08.277Z,99534.72
2023-03-27T19:00:18.343Z,99536.78
2023-03-27T19:03:23.523Z,99539.19
2023-03-27T19:06:26.640Z,99530.78
2023-03-27T19:09:40.673Z,99506.16
2023-03-27T19:12:44.437Z,99553.75
2023-03-27T19:15:48.952Z,99549.09
2023-03-27T19:18:52.930Z,99562.78
2023-03-27T19:21:55.456Z,99574.84
2023-03-27T19:24:58.920Z,99568.72
2023-03-27T19:28:02.558Z,99549.81
2023-03-27T19:31:09.893Z,99592.38
2023-03-27T19:34:12.241Z,99595.59
2023-03-27T19:37:14.999Z,99605.00
2023-03-27T19:40:18.523Z,99611.94
2023-03-27T19:43:21.911Z,99595.97
2023-03-27T19:46:24.589Z,99598.56
2023-03-27T19:49:27.523Z,99607.72
2023-03-27T19:52:30.698Z,99628.97
2023-03-27T19:55:33.367Z,99596.06
2023-03-27T19:58:35.901Z,99640.44
2023-03-27T20:01:38.605Z,99638.62
2023-03-27T20:04:41.563Z,99642.03
2023-03-27T20:07:43.858Z,99637.81
2023-03-27T20:10:50.702Z,99613.59
2023-03-27T20:13:56.987Z,99634.22
2023-03-27T20:16:59.993Z,99593.50
2023-03-27T20:20:02.390Z,99645.69
2023-03-27T20:23:06.092Z,99633.38
2023-03-27T20:26:09.236Z,99643.44
2023-03-27T20:29:16.218Z,99623.94
2023-03-27T20:32:19.946Z,99647.97
2023-03-27T20:35:25.020Z,99628.25
2023-03-27T20:38:30.791Z,99653.66
2023-03-27T20:41:34.624Z,99651.25
2023-03-27T20:44:37.167Z,99667.56
2023-03-27T20:47:43.263Z,99680.87
2023-03-27T20:50:55.773Z,99681.47
2023-03-27T20:53:58.414Z,99659.72
2023-03-27T20:57:01.523Z,99687.16
2023-03-27T21:00:08.129Z,99700.75
2023-03-27T21:03:10.968Z,99693.00
2023-03-27T21:06:17.305Z,99703.06
2023-03-27T21:09:19.827Z,99706.31
2023-03-27T21:12:22.423Z,99705.69
2023-03-27T21:15:24.772Z,99700.12
2023-03-27T21:18:27.463Z,99701.34
2023-03-27T21:21:31.216Z,99712.25
2023-03-27T21:24:33.677Z,99702.88
2023-03-27T21:27:36.051Z,99719.37
2023-03-27T21:30:46.500Z,99689.56
2023-03-27T21:33:50.629Z,99682.13
2023-03-27T21:36:53.311Z,99698.25
2023-03-27T21:39:55.975Z,99693.00
2023-03-27T21:42:59.794Z,99724.25
2023-03-27T21:46:03.607Z,99729.44
2023-03-27T21:49:06.507Z,99739.00
2023-03-27T21:52:09.594Z,99721.88
2023-03-27T21:55:12.318Z,99729.16
2023-03-27T21:58:14.660Z,99755.47
2023-03-27T22:01:17.794Z,99760.91
2023-03-27T22:04:21.788Z,99759.50
2023-03-27T22:07:24.320Z,99763.66
2023-03-27T22:10:26.951Z,99748.91
2023-03-27T22:13:29.360Z,99781.59
2023-03-27T22:16:31.970Z,99783.81
2023-03-27T22:19:34.292Z,99749.53
2023-03-27T22:22:38.031Z,99789.88
2023-03-27T22:25:40.453Z,99793.69
2023-03-27T22:28:43.425Z,99776.16
2023-03-27T22:31:45.826Z,99765.47
2023-03-27T22:34:49.273Z,99775.56
2023-03-27T22:37:51.641Z,99802.56
2023-03-27T22:40:54.221Z,99765.56
2023-03-27T22:43:56.557Z,99831.66
2023-03-27T22:47:00.342Z,99790.25
2023-03-27T22:50:04.914Z,99828.81
2023-03-27T22:53:07.704Z,99839.22
2023-03-27T22:56:10.240Z,99813.19
2023-03-27T22:59:14.141Z,99827.59
2023-03-27T23:02:16.654Z,99850.09
2023-03-27T23:05:19.464Z,99826.47
2023-03-27T23:08:24.326Z,99838.50
2023-03-27T23:11:27.021Z,99865.09
2023-03-27T23:14:29.465Z,99840.69
2023-03-27T23:17:32.094Z,99878.44
2023-03-27T23:20:34.399Z,99844.09
2023-03-27T23:23:38.955Z,99881.66
2023-03-27T23:26:41.369Z,99857.50
2023-03-27T23:29:44.541Z,99889.09
2023-03-27T23:32:46.876Z,99891.91
2023-03-27T23:35:49.543Z,99876.03
2023-03-27T23:38:53.189Z,99875.91
2023-03-27T23:41:56.005Z,99872.19
2023-03-27T23:44:58.337Z,99885.13
2023-03-27T23:48:01.381Z,99911.22
2023-03-27T23:51:04.311Z,99888.16
2023-03-27T23:54:06.931Z,99890.38
2023-03-27T23:57:09.446Z,99920.50
